Time;durP1;ratioP1;P1;durP2;ratioP2;P2;SDS_P1;SDS_P2;PMS_P1;PMS_P2;Temp;Humidity;BMP_temperature;BMP_pressure;BME280_temperature;BME280_humidity;BME280_pressure;Samples;Min_cycle;Max_cycle;Signal;HPM_P1;HPM_P2
2022/05/12 00:00:20;;;;;;;;;;;;;;;16.86;100.00;95695.84;1030843;28;19914;-69
2022/05/12 00:00:50;;;;;;;;;;;;;;;16.84;100.00;95700.69;1031054;28;19920;-68
2022/05/12 00:01:21;;;;;;;;;;;;;;;16.85;100.00;95698.81;1031132;28;19925;-69
2022/05/12 00:01:54;;;;;;;;;;;;;;;16.85;100.00;95696.19;1022570;28;19925;-69
2022/05/12 00:02:24;;;;;;;;;;;;;;;16.84;100.00;95700.69;1022337;28;20297;-72
2022/05/12 00:02:55;;;;;;;;;;;;;;;16.85;100.00;95698.81;1023499;28;20036;-68
2022/05/12 00:03:25;;;;;;;;;;;;;;;16.83;100.00;95695.69;1027964;28;20000;-69
2022/05/12 00:03:55;;;;;;;;;;;;;;;16.83;100.00;95696.47;1039109;28;19913;-69
2022/05/12 00:04:26;;;;;;;;;;;;;;;16.82;100.00;95694.13;1036792;28;19956;-69
2022/05/12 00:04:56;;;;;;;;;;;;;;;16.80;100.00;95704.25;1032940;28;19917;-69
2022/05/12 00:05:26;;;;;;;;;;;;;;;16.82;100.00;95704.72;1032730;28;20427;-69
2022/05/12 00:05:57;;;;;;;;;;;;;;;16.77;100.00;95699.53;1035030;28;19918;-70
2022/05/12 00:06:28;;;;;;;;;;;;;;;16.73;100.00;95697.50;1037983;28;20366;-68
2022/05/12 00:06:59;;;;;;;;;;;;;;;16.79;100.00;95705.34;1039277;28;20330;-69
2022/05/12 00:07:29;;;;;;;;;;;;;;;16.78;100.00;95701.13;1034971;28;20374;-69
2022/05/12 00:07:59;;;;;;;;;;;;;;;16.79;100.00;95700.81;1035502;28;19927;-69
2022/05/12 00:08:31;;;;;;;;;;;;;;;16.80;100.00;95699.75;1034664;28;20755;-68
2022/05/12 00:09:01;;;;;;;;;;;;;;;16.81;100.00;95698.66;1035106;28;20800;-69
2022/05/12 00:09:32;;;;;;;;;;;;;;;16.80;100.00;95706.88;1030588;28;19924;-68
2022/05/12 00:10:02;;;;;;;;;;;;;;;16.80;100.00;95701.59;1026365;28;19915;-68
2022/05/12 00:10:33;;;;;;;;;;;;;;;16.79;100.00;95702.69;1028985;28;19925;-69
2022/05/12 00:11:05;;;;;;;;;;;;;;;16.77;100.00;95700.34;1031762;28;19914;-69
2022/05/12 00:11:35;;;;;;;;;;;;;;;16.77;100.00;95697.69;1033715;28;19914;-69
2022/05/12 00:12:06;;;;;;;;;;;;;;;16.75;100.00;95707.03;1030695;28;19918;-69
2022/05/12 00:12:36;;;;;;;;;;;;;;;16.75;100.00;95701.72;1026087;28;20380;-68
2022/05/12 00:13:07;;;;;;;;;;;;;;;16.79;100.00;95698.16;1022860;28;19977;-69
2022/05/12 00:13:38;;;;;;;;;;;;;;;16.76;100.00;95698.75;1028738;28;19918;-70
2022/05/12 00:14:09;;;;;;;;;;;;;;;16.76;100.00;95698.75;1035261;28;20395;-70
2022/05/12 00:14:39;;;;;;;;;;;;;;;16.74;100.00;95692.97;1034045;28;19928;-69
2022/05/12 00:15:11;;;;;;;;;;;;;;;16.76;100.00;95697.97;1026827;28;20387;-70
2022/05/12 00:15:42;;;;;;;;;;;;;;;16.71;100.00;95698.88;1030867;28;19914;-70
2022/05/12 00:16:12;;;;;;;;;;;;;;;16.72;100.00;95697.78;1027636;28;20145;-69
2022/05/12 00:16:43;;;;;;;;;;;;;;;16.68;100.00;95700.25;1034490;28;19918;-69
2022/05/12 00:17:13;;;;;;;;;;;;;;;16.68;100.00;95704.78;1026530;28;19981;-70
2022/05/12 00:17:44;;;;;;;;;;;;;;;16.66;100.00;95698.97;1023008;28;19922;-70
2022/05/12 00:18:14;;;;;;;;;;;;;;;16.66;100.00;95697.09;1022920;28;19926;-69
2022/05/12 00:18:45;;;;;;;;;;;;;;;16.65;100.00;95700.06;1026705;28;19968;-69
2022/05/12 00:19:18;;;;;;;;;;;;;;;16.65;100.00;95703.50;1031295;28;20709;-69
2022/05/12 00:19:48;;;;;;;;;;;;;;;16.71;100.00;95702.31;1034574;28;19922;-70
2022/05/12 00:20:19;;;;;;;;;;;;;;;16.70;100.00;95700.75;1039384;28;19917;-69
2022/05/12 00:20:50;;;;;;;;;;;;;;;16.68;100.00;95702.13;1034527;28;19925;-68
2022/05/12 00:21:20;;;;;;;;;;;;;;;16.64;100.00;95701.94;1034072;28;20288;-69
2022/05/12 00:21:50;;;;;;;;;;;;;;;16.67;100.00;95705.88;1029171;28;19926;-69
2022/05/12 00:22:20;;;;;;;;;;;;;;;16.65;100.00;95702.72;1029701;28;20601;-68
2022/05/12 00:22:51;;;;;;;;;;;;;;;16.65;100.00;95700.84;1035411;28;19930;-70
2022/05/12 00:23:22;;;;;;;;;;;;;;;16.61;100.00;95702.53;1034781;28;19944;-70
2022/05/12 00:23:58;;;;;;;;;;;;;;;16.61;100.00;95702.53;1033417;28;19925;-68
2022/05/12 00:24:29;;;;;;;;;;;;;;;16.58;100.00;95700.50;1037292;28;19984;-69
2022/05/12 00:24:59;;;;;;;;;;;;;;;16.56;100.00;95700.00;1034726;28;20657;-69
2022/05/12 00:25:29;;;;;;;;;;;;;;;16.54;100.00;95702.19;1030014;28;19929;-70
2022/05/12 00:25:59;;;;;;;;;;;;;;;16.54;100.00;95702.19;1036186;28;19953;-70
2022/05/12 00:26:31;;;;;;;;;;;;;;;16.55;100.00;95701.09;1033368;28;19948;-68
2022/05/12 00:27:01;;;;;;;;;;;;;;;16.54;100.00;95694.25;1030333;28;20445;-69
2022/05/12 00:27:31;;;;;;;;;;;;;;;16.53;100.00;95697.94;1031048;28;19910;-69
2022/05/12 00:28:03;;;;;;;;;;;;;;;16.53;100.00;95702.47;1026846;28;19922;-70
2022/05/12 00:28:33;;;;;;;;;;;;;;;16.53;100.00;95697.94;1028392;28;19914;-69
2022/05/12 00:29:05;;;;;;;;;;;;;;;16.55;100.00;95701.09;1034775;28;19940;-69
2022/05/12 00:29:35;;;;;;;;;;;;;;;16.54;100.00;95707.50;1033813;28;19944;-70
2022/05/12 00:30:09;;;;;;;;;;;;;;;16.52;100.00;95703.56;1039013;28;19991;-69
2022/05/12 00:30:39;;;;;;;;;;;;;;;16.50;100.00;95701.22;1036121;28;19921;-69
2022/05/12 00:31:09;;;;;;;;;;;;;;;16.47;100.00;95688.59;1038396;28;19924;-70
2022/05/12 00:31:41;;;;;;;;;;;;;;;16.49;100.00;95699.66;1038948;28;19921;-68
2022/05/12 00:32:11;;;;;;;;;;;;;;;16.46;100.00;95697.59;1038711;28;20673;-68
2022/05/12 00:32:42;;;;;;;;;;;;;;;16.43;100.00;95701.66;1034479;28;19925;-69
2022/05/12 00:33:12;;;;;;;;;;;;;;;16.42;100.00;95699.28;1030570;28;19968;-69
2022/05/12 00:33:43;;;;;;;;;;;;;;;16.39;100.00;95699.88;1026749;28;20753;-70
2022/05/12 00:34:13;;;;;;;;;;;;;;;16.38;100.00;95703.63;1030948;28;19945;-69
2022/05/12 00:34:44;;;;;;;;;;;;;;;16.39;100.00;95705.19;1031039;28;19925;-70
2022/05/12 00:35:15;;;;;;;;;;;;;;;16.36;100.00;95698.59;1030883;28;19992;-69
2022/05/12 00:35:46;;;;;;;;;;;;;;;16.37;100.00;95702.06;1031011;28;20525;-69
2022/05/12 00:36:16;;;;;;;;;;;;;;;16.36;100.00;95697.84;1030496;28;19914;-68
2022/05/12 00:36:46;;;;;;;;;;;;;;;16.36;100.00;95700.47;1030655;28;20525;-70
2022/05/12 00:37:17;;;;;;;;;;;;;;;16.38;100.00;95699.09;1030168;28;19922;-70
2022/05/12 00:37:47;;;;;;;;;;;;;;;16.35;100.00;95698.94;1022605;29;19922;-69
2022/05/12 00:38:17;;;;;;;;;;;;;;;16.36;100.00;95701.25;1026821;28;19922;-69
2022/05/12 00:38:47;;;;;;;;;;;;;;;16.34;100.00;95697.38;1033473;28;19913;-69
2022/05/12 00:39:18;;;;;;;;;;;;;;;16.33;100.00;95699.22;1033831;28;20000;-71
2022/05/12 00:39:48;;;;;;;;;;;;;;;16.31;100.00;95700.59;1034051;28;20387;-70
2022/05/12 00:40:19;;;;;;;;;;;;;;;16.31;100.00;95695.31;1034712;28;19913;-70
2022/05/12 00:40:49;;;;;;;;;;;;;;;16.33;100.00;95699.22;1034878;28;20444;-71
2022/05/12 00:41:19;;;;;;;;;;;;;;;16.34;100.00;95697.38;1037993;28;19937;-69
2022/05/12 00:41:49;;;;;;;;;;;;;;;16.35;100.00;95701.56;1031229;28;19913;-70
2022/05/12 00:42:23;;;;;;;;;;;;;;;16.32;100.00;95699.53;1033257;28;20403;-70
2022/05/12 00:42:53;;;;;;;;;;;;;;;16.28;100.00;95694.03;1034261;28;19918;-68
2022/05/12 00:43:32;;;;;;;;;;;;;;;16.27;100.00;95695.91;1031277;28;19914;-69
2022/05/12 00:44:05;;;;;;;;;;;;;;;16.24;100.00;95701.03;1038618;28;19919;-69
2022/05/12 00:44:35;;;;;;;;;;;;;;;16.24;100.00;95698.38;1034575;28;19917;-70
2022/05/12 00:45:06;;;;;;;;;;;;;;;16.32;100.00;95699.53;1036409;28;19960;-69
2022/05/12 00:45:37;;;;;;;;;;;;;;;16.30;100.00;95699.03;1037377;28;20004;-70
2022/05/12 00:46:11;;;;;;;;;;;;;;;16.31;100.00;95700.59;1030575;28;19914;-69
2022/05/12 00:46:41;;;;;;;;;;;;;;;16.26;100.00;95701.50;1034684;28;19940;-69
2022/05/12 00:47:14;;;;;;;;;;;;;;;16.29;100.00;95706.19;1034252;28;19944;-69
2022/05/12 00:47:48;;;;;;;;;;;;;;;16.23;100.00;95700.25;1032128;28;19918;-68
2022/05/12 00:48:18;;;;;;;;;;;;;;;16.21;100.00;95705.03;1034668;28;19910;-70
2022/05/12 00:48:48;;;;;;;;;;;;;;;16.20;100.00;95703.50;1030734;28;19914;-69
2022/05/12 00:49:26;;;;;;;;;;;;;;;16.18;100.00;95703.00;1034717;28;20243;-70
2022/05/12 00:49:56;;;;;;;;;;;;;;;16.14;100.00;95699.38;1038029;28;19927;-70
2022/05/12 00:50:29;;;;;;;;;;;;;;;16.14;100.00;95702.03;1034846;28;20358;-70
2022/05/12 00:50:59;;;;;;;;;;;;;;;16.14;100.00;95699.38;1023701;28;19914;-70
2022/05/12 00:51:37;;;;;;;;;;;;;;;16.15;100.00;95703.59;1026578;28;19961;-68
2022/05/12 00:52:10;;;;;;;;;;;;;;;16.14;100.00;95703.91;1026637;28;20045;-68
2022/05/12 00:52:41;;;;;;;;;;;;;;;16.14;100.00;95702.03;1027447;28;19925;-70
2022/05/12 00:53:14;;;;;;;;;;;;;;;16.13;100.00;95703.13;1030775;28;19921;-69
2022/05/12 00:53:45;;;;;;;;;;;;;;;16.17;100.00;95701.44;1027976;28;19914;-69
2022/05/12 00:54:17;;;;;;;;;;;;;;;16.17;100.00;95698.78;1028748;28;20652;-69
2022/05/12 00:54:49;;;;;;;;;;;;;;;16.18;100.00;95695.06;1031715;28;19914;-69
2022/05/12 00:55:22;;;;;;;;;;;;;;;16.20;100.00;95698.19;1030986;28;19928;-70
2022/05/12 00:55:52;;;;;;;;;;;;;;;16.21;100.00;95699.75;1034720;28;20406;-69
2022/05/12 00:56:23;;;;;;;;;;;;;;;16.20;100.00;95698.19;1034221;28;19960;-69
2022/05/12 00:56:53;;;;;;;;;;;;;;;16.23;100.00;95692.31;1031054;28;20415;-70
2022/05/12 00:57:27;;;;;;;;;;;;;;;16.23;100.00;95702.88;1034564;28;19928;-69
2022/05/12 00:57:58;;;;;;;;;;;;;;;16.19;100.00;95699.25;1035194;28;20024;-69
2022/05/12 00:58:28;;;;;;;;;;;;;;;16.23;100.00;95707.38;1034965;28;20367;-69
2022/05/12 00:59:03;;;;;;;;;;;;;;;16.22;100.00;95700.53;1030119;28;20005;-67
2022/05/12 00:59:34;;;;;;;;;;;;;;;16.24;100.00;95704.44;1027495;28;19918;-66
2022/05/12 01:00:05;;;;;;;;;;;;;;;16.25;100.00;95702.59;1023228;28;19918;-69
2022/05/12 01:00:35;;;;;;;;;;;;;;;16.22;100.00;95705.81;1029770;28;20710;-69
2022/05/12 01:01:07;;;;;;;;;;;;;;;16.19;100.00;95698.47;1034604;28;19917;-69
2022/05/12 01:01:37;;;;;;;;;;;;;;;16.23;100.00;95700.25;1037047;28;19917;-68
2022/05/12 01:02:09;;;;;;;;;;;;;;;16.03;100.00;95676.88;1034717;28;19917;-70
2022/05/12 01:02:39;;;;;;;;;;;;;;;16.30;100.00;95701.66;1029951;28;20093;-69
2022/05/12 01:03:12;;;;;;;;;;;;;;;16.29;100.00;95705.41;1030380;28;20359;-69
2022/05/12 01:03:43;;;;;;;;;;;;;;;16.41;100.00;95708.31;1027713;28;19914;-70
2022/05/12 01:04:14;;;;;;;;;;;;;;;16.40;100.00;95701.47;1035145;28;19921;-69
2022/05/12 01:04:44;;;;;;;;;;;;;;;16.36;100.00;95698.59;1029547;28;19970;-69
2022/05/12 01:05:14;;;;;;;;;;;;;;;16.38;100.00;95700.97;1029657;28;19909;-70
2022/05/12 01:05:45;;;;;;;;;;;;;;;16.44;100.00;95700.56;1035052;28;19917;-69
2022/05/12 01:06:15;;;;;;;;;;;;;;;16.48;100.00;95698.09;1033741;28;19929;-69
2022/05/12 01:06:45;;;;;;;;;;;;;;;16.49;100.00;95702.28;1037929;28;19925;-69
2022/05/12 01:07:16;;;;;;;;;;;;;;;16.49;100.00;95694.34;1038662;28;20664;-68
2022/05/12 01:07:46;;;;;;;;;;;;;;;16.53;100.00;95700.59;1038769;28;19917;-68
2022/05/12 01:08:17;;;;;;;;;;;;;;;16.55;100.00;95700.31;1034533;28;20448;-69
2022/05/12 01:08:50;;;;;;;;;;;;;;;16.51;100.00;95702.78;1030502;28;20561;-69
2022/05/12 01:09:20;;;;;;;;;;;;;;;16.65;100.00;95698.19;1030605;28;20438;-70
2022/05/12 01:09:51;;;;;;;;;;;;;;;16.66;100.00;95705.06;1029395;28;19969;-70
2022/05/12 01:10:21;;;;;;;;;;;;;;;16.71;100.00;95707.59;1030694;28;20147;-69
2022/05/12 01:10:55;;;;;;;;;;;;;;;16.86;100.00;95700.38;1026483;28;19918;-68
2022/05/12 01:11:25;;;;;;;;;;;;;;;16.80;100.00;95698.94;1023100;28;20778;-68
2022/05/12 01:11:56;;;;;;;;;;;;;;;16.77;100.00;95700.34;1023165;28;19930;-70
2022/05/12 01:12:26;;;;;;;;;;;;;;;16.82;100.00;95699.44;1025875;28;19969;-69
2022/05/12 01:12:56;;;;;;;;;;;;;;;16.79;100.00;95702.69;1033895;28;20014;-68
2022/05/12 01:13:29;;;;;;;;;;;;;;;16.76;100.00;95697.97;1034504;28;19921;-69
2022/05/12 01:14:03;;;;;;;;;;;;;;;16.73;100.00;95694.84;1029366;28;19957;-72
2022/05/12 01:14:33;;;;;;;;;;;;;;;16.71;100.00;95704.94;1029141;28;20380;-70
2022/05/12 01:15:04;;;;;;;;;;;;;;;16.72;100.00;95695.91;1033015;28;20037;-69
2022/05/12 01:15:35;;;;;;;;;;;;;;;16.71;100.00;95704.16;1027942;28;19922;-70
2022/05/12 01:16:05;;;;;;;;;;;;;;;16.70;100.00;95699.97;1031006;28;19925;-69
2022/05/12 01:16:37;;;;;;;;;;;;;;;16.66;100.00;95699.75;1034578;28;19939;-69
2022/05/12 01:17:08;;;;;;;;;;;;;;;16.62;100.00;95704.09;1030846;28;19918;-72
2022/05/12 01:17:38;;;;;;;;;;;;;;;16.61;100.00;95707.84;1034548;28;20489;-70
2022/05/12 01:18:10;;;;;;;;;;;;;;;16.61;100.00;95707.84;1030415;28;20448;-68
2022/05/12 01:18:41;;;;;;;;;;;;;;;16.60;100.00;95708.13;1030812;28;19913;-68
2022/05/12 01:19:13;;;;;;;;;;;;;;;16.67;100.00;95705.88;1026585;28;19926;-70
2022/05/12 01:19:43;;;;;;;;;;;;;;;16.69;100.00;95709.75;1030472;28;20020;-70
2022/05/12 01:20:14;;;;;;;;;;;;;;;16.73;100.00;95708.09;1030231;28;20387;-70
2022/05/12 01:20:45;;;;;;;;;;;;;;;16.71;100.00;95706.81;1026888;28;19910;-69
2022/05/12 01:21:15;;;;;;;;;;;;;;;16.76;100.00;95708.59;1034244;28;19941;-69
2022/05/12 01:21:46;;;;;;;;;;;;;;;16.76;100.00;95708.59;1031251;28;19917;-69
2022/05/12 01:22:35;;;;;;;;;;;;;;;16.72;100.00;95705.72;1031355;28;20348;-69
2022/05/12 01:23:16;;;;;;;;;;;;;;;16.68;100.00;95702.91;1030766;28;19937;-69
2022/05/12 01:23:48;;;;;;;;;;;;;;;16.63;100.00;95711.00;1033308;28;20004;-70
2022/05/12 01:24:19;;;;;;;;;;;;;;;16.61;100.00;95705.19;1034137;28;19914;-70
2022/05/12 01:24:49;;;;;;;;;;;;;;;16.60;100.00;95705.47;1037033;28;19909;-71
2022/05/12 01:25:20;;;;;;;;;;;;;;;16.59;100.00;95710.00;1038723;28;19909;-69
2022/05/12 01:25:54;;;;;;;;;;;;;;;16.60;100.00;95702.84;1034679;28;19910;-69
2022/05/12 01:26:24;;;;;;;;;;;;;;;16.57;100.00;95708.75;1039444;28;19906;-69
2022/05/12 01:26:54;;;;;;;;;;;;;;;16.54;100.00;95704.84;1038736;28;19963;-68
2022/05/12 01:27:25;;;;;;;;;;;;;;;16.53;100.00;95708.53;1038949;28;19909;-69
2022/05/12 01:27:55;;;;;;;;;;;;;;;16.50;100.00;95703.88;1042871;28;20301;-69
2022/05/12 01:28:25;;;;;;;;;;;;;;;16.53;100.00;95700.59;1042868;28;20434;-69
2022/05/12 01:28:56;;;;;;;;;;;;;;;16.53;100.00;95705.91;1042837;28;19905;-69
2022/05/12 01:29:26;;;;;;;;;;;;;;;16.55;100.00;95700.31;1034451;28;19909;-68
2022/05/12 01:29:57;;;;;;;;;;;;;;;16.55;100.00;95705.63;1034023;28;19914;-69
2022/05/12 01:30:27;;;;;;;;;;;;;;;16.56;100.00;95700.00;1030471;28;19910;-70
2022/05/12 01:30:59;;;;;;;;;;;;;;;16.65;100.00;95706.16;1028723;28;19910;-70
2022/05/12 01:31:32;;;;;;;;;;;;;;;16.66;100.00;95699.75;1034547;28;20419;-69
2022/05/12 01:32:03;;;;;;;;;;;;;;;16.65;100.00;95705.38;1030550;28;19921;-69
2022/05/12 01:32:33;;;;;;;;;;;;;;;16.63;100.00;95704.88;1030439;28;19920;-69
2022/05/12 01:33:04;;;;;;;;;;;;;;;16.64;100.00;95707.25;1026622;28;19931;-69
2022/05/12 01:33:35;;;;;;;;;;;;;;;16.64;100.00;95704.59;1030477;28;19918;-69
2022/05/12 01:34:06;;;;;;;;;;;;;;;16.68;100.00;95710.06;1034799;28;20379;-68
2022/05/12 01:34:36;;;;;;;;;;;;;;;16.68;100.00;95702.13;1030476;28;19909;-70
2022/05/12 01:35:06;;;;;;;;;;;;;;;16.73;100.00;95702.78;1026846;28;19910;-71
2022/05/12 01:35:37;;;;;;;;;;;;;;;16.72;100.00;95706.50;1033638;28;19945;-69
2022/05/12 01:36:07;;;;;;;;;;;;;;;16.65;100.00;95695.56;1032075;28;19948;-70
2022/05/12 01:36:37;;;;;;;;;;;;;;;16.75;100.00;95696.44;1030549;28;19945;-70
2022/05/12 01:37:08;;;;;;;;;;;;;;;16.75;100.00;95707.03;1028191;28;20309;-69
2022/05/12 01:37:39;;;;;;;;;;;;;;;16.78;100.00;95701.13;1029589;28;19910;-71
2022/05/12 01:38:13;;;;;;;;;;;;;;;16.73;100.00;95699.34;1030665;28;19942;-70
2022/05/12 01:38:43;;;;;;;;;;;;;;;16.70;100.00;95700.75;1027139;28;19914;-69
2022/05/12 01:39:14;;;;;;;;;;;;;;;16.71;100.00;95701.53;1030548;28;19996;-69
2022/05/12 01:39:44;;;;;;;;;;;;;;;16.75;100.00;95707.03;1030037;28;19920;-70
2022/05/12 01:40:16;;;;;;;;;;;;;;;16.77;100.00;95699.53;1030484;28;19963;-70
2022/05/12 01:40:47;;;;;;;;;;;;;;;16.82;100.00;95705.50;1034311;28;19925;-70
2022/05/12 01:41:17;;;;;;;;;;;;;;;16.88;100.00;95706.16;1029543;28;20450;-69
2022/05/12 01:41:50;;;;;;;;;;;;;;;16.87;100.00;95704.63;1035109;28;19924;-69
2022/05/12 01:42:21;;;;;;;;;;;;;;;16.92;100.00;95699.94;1038866;28;19935;-70
2022/05/12 01:42:52;;;;;;;;;;;;;;;16.88;100.00;95698.22;1034067;28;19983;-70
2022/05/12 01:43:22;;;;;;;;;;;;;;;16.92;100.00;95701.81;1029947;28;19961;-69
2022/05/12 01:43:55;;;;;;;;;;;;;;;16.91;100.00;95698.41;1026695;28;19957;-70
2022/05/12 01:44:26;;;;;;;;;;;;;;;16.90;100.00;95702.13;1026683;28;19918;-68
2022/05/12 01:44:56;;;;;;;;;;;;;;;16.89;100.00;95702.44;1027015;28;20369;-69
2022/05/12 01:45:26;;;;;;;;;;;;;;;16.92;100.00;95707.91;1027018;28;19977;-70
2022/05/12 01:46:00;;;;;;;;;;;;;;;17.02;100.00;95696.25;1026816;28;20020;-70
2022/05/12 01:46:30;;;;;;;;;;;;;;;17.04;100.00;95704.72;1031209;28;19933;-68
2022/05/12 01:47:01;;;;;;;;;;;;;;;17.01;100.00;95705.31;1031085;28;19906;-70
2022/05/12 01:47:34;;;;;;;;;;;;;;;16.93;100.00;95706.84;1027947;28;19930;-69
2022/05/12 01:48:05;;;;;;;;;;;;;;;16.89;100.00;95707.72;1030445;28;19934;-70
2022/05/12 01:48:35;;;;;;;;;;;;;;;16.85;100.00;95712.06;1030207;28;19914;-70
2022/05/12 01:49:05;;;;;;;;;;;;;;;16.86;100.00;95710.97;1029128;28;19958;-69
2022/05/12 01:49:36;;;;;;;;;;;;;;;16.83;100.00;95700.97;1029917;28;20426;-69
2022/05/12 01:50:06;;;;;;;;;;;;;;;16.79;100.00;95705.34;1026500;28;19926;-69
2022/05/12 01:50:37;;;;;;;;;;;;;;;16.77;100.00;95710.94;1030319;28;20017;-69
2022/05/12 01:51:07;;;;;;;;;;;;;;;16.72;100.00;95716.31;1034707;28;19917;-70
2022/05/12 01:51:38;;;;;;;;;;;;;;;16.71;100.00;95712.13;1034514;28;19917;-69
2022/05/12 01:52:10;;;;;;;;;;;;;;;16.68;100.00;95708.19;1030747;28;19968;-70
2022/05/12 01:52:43;;;;;;;;;;;;;;;16.67;100.00;95711.16;1027048;28;20514;-69
2022/05/12 01:53:14;;;;;;;;;;;;;;;16.68;100.00;95712.72;1028424;28;19982;-68
2022/05/12 01:53:44;;;;;;;;;;;;;;;16.67;100.00;95714.59;1035200;28;20481;-68
2022/05/12 01:54:14;;;;;;;;;;;;;;;16.65;100.00;95708.03;1034498;28;19956;-71
2022/05/12 01:54:45;;;;;;;;;;;;;;;16.66;100.00;95710.34;1027190;28;19977;-69
2022/05/12 01:55:16;;;;;;;;;;;;;;;16.61;100.00;95712.38;1027383;28;19926;-69
2022/05/12 01:55:48;;;;;;;;;;;;;;;16.60;100.00;95711.59;1023260;28;19965;-69
2022/05/12 01:56:19;;;;;;;;;;;;;;;16.62;100.00;95709.41;1027565;28;20347;-70
2022/05/12 01:56:49;;;;;;;;;;;;;;;16.61;100.00;95713.16;1035424;28;19918;-70
2022/05/12 01:57:19;;;;;;;;;;;;;;;16.59;100.00;95711.88;1031194;28;19912;-69
2022/05/12 01:57:50;;;;;;;;;;;;;;;16.56;100.00;95715.91;1034889;28;20449;-70
2022/05/12 01:58:20;;;;;;;;;;;;;;;16.57;100.00;95714.84;1035254;28;19957;-70
2022/05/12 01:58:51;;;;;;;;;;;;;;;16.68;100.00;95708.19;1035392;28;20535;-70
2022/05/12 01:59:23;;;;;;;;;;;;;;;16.67;100.00;95717.25;1039490;28;19914;-70
2022/05/12 01:59:53;;;;;;;;;;;;;;;16.63;100.00;95716.28;1034609;28;20311;-70
2022/05/12 02:00:24;;;;;;;;;;;;;;;16.68;100.00;95713.50;1027453;28;20487;-69
2022/05/12 02:00:54;;;;;;;;;;;;;;;16.73;100.00;95708.09;1023205;29;19969;-69
2022/05/12 02:01:24;;;;;;;;;;;;;;;16.70;100.00;95716.66;1023709;28;20428;-71
2022/05/12 02:01:55;;;;;;;;;;;;;;;16.70;100.00;95719.28;1027592;28;19918;-71
2022/05/12 02:02:27;;;;;;;;;;;;;;;16.76;100.00;95713.88;1035534;28;19913;-70
2022/05/12 02:03:00;;;;;;;;;;;;;;;16.88;100.00;95716.78;1039489;28;19913;-69
2022/05/12 02:03:31;;;;;;;;;;;;;;;16.86;100.00;95718.94;1035247;28;20051;-68
2022/05/12 02:04:02;;;;;;;;;;;;;;;16.92;100.00;95718.50;1031441;28;19968;-70
2022/05/12 02:04:32;;;;;;;;;;;;;;;16.89;100.00;95726.28;1028254;28;19918;-70
2022/05/12 02:05:03;;;;;;;;;;;;;;;17.05;100.00;95710.78;1031175;28;19918;-69
2022/05/12 02:05:34;;;;;;;;;;;;;;;17.09;100.00;95706.44;1031716;28;19924;-70
2022/05/12 02:06:04;;;;;;;;;;;;;;;17.05;100.00;95714.22;1035682;28;20004;-69
2022/05/12 02:06:34;;;;;;;;;;;;;;;17.08;100.00;95710.97;1039238;28;20015;-68
2022/05/12 02:07:07;;;;;;;;;;;;;;;17.07;100.00;95717.34;1035337;28;20019;-71
2022/05/12 02:07:38;;;;;;;;;;;;;;;17.07;100.00;95709.41;1035411;28;19913;-68
2022/05/12 02:08:09;;;;;;;;;;;;;;;17.08;100.00;95713.63;1035339;28;20514;-69
2022/05/12 02:08:39;;;;;;;;;;;;;;;17.04;100.00;95717.97;1032194;28;19914;-70
2022/05/12 02:09:10;;;;;;;;;;;;;;;17.06;100.00;95717.66;1031227;28;19940;-70
2022/05/12 02:09:40;;;;;;;;;;;;;;;17.16;100.00;95715.50;1027135;28;19906;-68
2022/05/12 02:10:11;;;;;;;;;;;;;;;17.16;100.00;95720.03;1027085;28;19986;-68
2022/05/12 02:10:42;;;;;;;;;;;;;;;17.12;100.00;95717.22;1023446;28;19910;-70
2022/05/12 02:11:12;;;;;;;;;;;;;;;17.10;100.00;95716.75;1027766;28;20343;-70
2022/05/12 02:11:43;;;;;;;;;;;;;;;17.08;100.00;95710.97;1035344;28;20392;-69
2022/05/12 02:12:14;;;;;;;;;;;;;;;17.08;100.00;95715.50;1035687;28;19925;-69
2022/05/12 02:12:44;;;;;;;;;;;;;;;17.05;100.00;95714.22;1043862;28;20294;-68
2022/05/12 02:13:15;;;;;;;;;;;;;;;17.14;100.00;95716.94;1038400;28;19992;-69
2022/05/12 02:13:45;;;;;;;;;;;;;;;17.13;100.00;95718.78;1031563;28;19910;-70
2022/05/12 02:14:15;;;;;;;;;;;;;;;17.17;100.00;95714.44;1031374;28;19967;-70
2022/05/12 02:14:46;;;;;;;;;;;;;;;17.26;100.00;95721.66;1031453;28;19914;-69
2022/05/12 02:15:16;;;;;;;;;;;;;;;17.18;100.00;95721.31;1038944;28;20447;-69
2022/05/12 02:15:47;;;;;;;;;;;;;;;17.15;100.00;95721.91;1039601;28;19917;-70
2022/05/12 02:16:18;;;;;;;;;;;;;;;17.14;100.00;95719.56;1044006;28;20000;-69
2022/05/12 02:16:48;;;;;;;;;;;;;;;17.10;100.00;95718.59;1035297;28;19910;-69
2022/05/12 02:17:18;;;;;;;;;;;;;;;17.07;100.00;95722.66;1035451;28;19914;-69
2022/05/12 02:17:49;;;;;;;;;;;;;;;17.13;100.00;95723.28;1031407;28;20281;-69
2022/05/12 02:18:20;;;;;;;;;;;;;;;17.09;100.00;95720.47;1027500;28;19918;-70
2022/05/12 02:18:50;;;;;;;;;;;;;;;17.05;100.00;95721.41;1028064;28;20455;-70
2022/05/12 02:19:23;;;;;;;;;;;;;;;17.12;100.00;95727.81;1028292;28;20558;-69
2022/05/12 02:19:54;;;;;;;;;;;;;;;17.17;100.00;95719.75;1027691;28;20425;-69
2022/05/12 02:20:24;;;;;;;;;;;;;;;17.20;100.00;95720.97;1032099;28;19917;-69
2022/05/12 02:20:54;;;;;;;;;;;;;;;17.16;100.00;95722.69;1032438;28;19914;-69
2022/05/12 02:21:25;;;;;;;;;;;;;;;17.25;100.00;95725.41;1031952;28;19913;-68
2022/05/12 02:21:56;;;;;;;;;;;;;;;17.20;100.00;95724.44;1033999;28;19921;-69
2022/05/12 02:22:26;;;;;;;;;;;;;;;17.27;100.00;95720.56;1028004;28;19918;-69
2022/05/12 02:22:57;;;;;;;;;;;;;;;17.26;100.00;95721.66;1032063;28;20020;-69
2022/05/12 02:23:27;;;;;;;;;;;;;;;17.45;100.00;95730.16;1035677;28;19913;-68
2022/05/12 02:23:58;;;;;;;;;;;;;;;17.38;100.00;95724.50;1040016;28;19971;-70
2022/05/12 02:24:28;;;;;;;;;;;;;;;17.40;100.00;95727.63;1044531;28;19967;-69
2022/05/12 02:24:58;;;;;;;;;;;;;;;17.35;100.00;95725.13;1036420;28;19980;-69
2022/05/12 02:25:29;;;;;;;;;;;;;;;17.36;100.00;95724.03;1032020;28;20308;-69
2022/05/12 02:25:59;;;;;;;;;;;;;;;17.33;100.00;95737.91;1032294;28;19914;-69
2022/05/12 02:26:29;;;;;;;;;;;;;;;17.28;100.00;95730.88;1028073;28;19934;-70
2022/05/12 02:27:00;;;;;;;;;;;;;;;17.30;100.00;95725.25;1036208;28;19921;-69
2022/05/12 02:27:30;;;;;;;;;;;;;;;17.26;100.00;95734.91;1036122;28;19928;-68
2022/05/12 02:28:00;;;;;;;;;;;;;;;17.25;100.00;95736.00;1036150;28;20441;-68
2022/05/12 02:28:31;;;;;;;;;;;;;;;17.20;100.00;95731.59;1035766;28;19918;-68
2022/05/12 02:29:01;;;;;;;;;;;;;;;17.22;100.00;95741.91;1032314;28;19925;-69
2022/05/12 02:29:32;;;;;;;;;;;;;;;17.28;100.00;95728.22;1031943;28;20331;-69
2022/05/12 02:30:02;;;;;;;;;;;;;;;17.27;100.00;95736.47;1027483;28;19926;-70
2022/05/12 02:30:34;;;;;;;;;;;;;;;17.28;100.00;95730.09;1032140;28;19918;-70
2022/05/12 02:31:04;;;;;;;;;;;;;;;17.37;100.00;95730.88;1028239;28;19918;-70
2022/05/12 02:31:34;;;;;;;;;;;;;;;17.36;100.00;95732.75;1032446;28;19968;-69
2022/05/12 02:32:05;;;;;;;;;;;;;;;17.32;100.00;95726.50;1035973;28;19919;-69
2022/05/12 02:32:35;;;;;;;;;;;;;;;17.27;100.00;95733.81;1036086;28;19918;-69
2022/05/12 02:33:05;;;;;;;;;;;;;;;17.24;100.00;95731.78;1040466;28;19924;-70
2022/05/12 02:33:35;;;;;;;;;;;;;;;17.36;100.00;95729.34;1035978;28;19952;-70
2022/05/12 02:34:06;;;;;;;;;;;;;;;17.28;100.00;95735.41;1036225;28;19918;-69
2022/05/12 02:34:36;;;;;;;;;;;;;;;17.32;100.00;95741.66;1036320;28;19917;-70
2022/05/12 02:35:07;;;;;;;;;;;;;;;17.32;100.00;95729.16;1040370;28;20214;-69
2022/05/12 02:35:37;;;;;;;;;;;;;;;17.30;100.00;95730.56;1040293;28;19921;-70
2022/05/12 02:36:08;;;;;;;;;;;;;;;17.28;100.00;95740.69;1040182;28;20368;-70
2022/05/12 02:36:38;;;;;;;;;;;;;;;17.23;100.00;95740.81;1035947;28;19913;-70
2022/05/12 02:37:08;;;;;;;;;;;;;;;17.25;100.00;95741.31;1036173;28;19917;-70
2022/05/12 02:37:39;;;;;;;;;;;;;;;17.22;100.00;95740.03;1032065;28;19920;-70
2022/05/12 02:38:09;;;;;;;;;;;;;;;17.32;100.00;95736.34;1032018;28;19921;-70
2022/05/12 02:38:39;;;;;;;;;;;;;;;17.25;100.00;95746.59;1036103;28;19952;-70
2022/05/12 02:39:10;;;;;;;;;;;;;;;17.30;100.00;95733.19;1032123;28;19917;-69